Time;durP1;ratioP1;P1;durP2;ratioP2;P2;SDS_P1;SDS_P2;PMS_P1;PMS_P2;Temp;Humidity;BMP_temperature;BMP_pressure;BME280_temperature;BME280_humidity;BME280_pressure;Samples;Min_cycle;Max_cycle;Signal;HPM_P1;HPM_P2
2021/06/27 00:01:27;;;;;;;28.55;15.70;;;16.70;99.90;;;;;;4996041;28;20057;-84
2021/06/27 00:04:13;;;;;;;29.90;16.77;;;16.70;99.90;;;;;;4967264;28;20062;-86
2021/06/27 00:06:41;;;;;;;25.60;14.93;;;16.70;99.90;;;;;;4979715;28;20061;-84
2021/06/27 00:09:09;;;;;;;26.52;14.93;;;16.70;99.90;;;;;;5002572;28;20054;-85
2021/06/27 00:11:37;;;;;;;29.20;13.85;;;16.60;99.90;;;;;;4986294;28;20050;-84
2021/06/27 00:14:07;;;;;;;28.73;14.32;;;16.60;99.90;;;;;;4978128;28;20050;-83
2021/06/27 00:16:36;;;;;;;23.50;11.63;;;16.60;99.90;;;;;;5014807;28;20064;-84
2021/06/27 00:19:05;;;;;;;22.15;10.57;;;16.60;99.90;;;;;;4980851;28;20172;-85
2021/06/27 00:21:34;;;;;;;20.65;10.70;;;16.60;99.90;;;;;;4997148;28;20058;-83
2021/06/27 00:24:02;;;;;;;20.77;9.98;;;16.60;99.90;;;;;;4979526;28;20041;-84
2021/06/27 00:26:30;;;;;;;21.25;10.38;;;16.60;99.90;;;;;;5005108;28;20064;-83
2021/06/27 00:28:58;;;;;;;21.42;10.30;;;16.60;99.90;;;;;;4962914;28;20046;-86
2021/06/27 00:31:26;;;;;;;20.40;9.90;;;16.60;99.90;;;;;;4995191;28;20528;-83
2021/06/27 00:33:55;;;;;;;19.02;9.48;;;16.60;99.90;;;;;;4996915;28;20054;-85
2021/06/27 00:36:23;;;;;;;25.80;10.57;;;16.70;99.90;;;;;;4970658;28;20130;-83
2021/06/27 00:39:09;;;;;;;20.63;9.65;;;16.70;99.90;;;;;;5013726;28;20037;-83
2021/06/27 00:41:37;;;;;;;21.00;10.02;;;16.60;99.90;;;;;;5011606;28;20057;-84
2021/06/27 00:44:05;;;;;;;19.35;9.52;;;16.60;99.90;;;;;;5013153;28;20068;-84
2021/06/27 00:46:33;;;;;;;19.45;8.93;;;16.60;99.90;;;;;;4993565;28;20057;-84
2021/06/27 00:49:01;;;;;;;21.23;9.48;;;16.60;99.90;;;;;;4985629;28;20058;-84
2021/06/27 00:51:29;;;;;;;24.55;10.13;;;16.60;99.90;;;;;;4977938;28;20057;-84
2021/06/27 00:53:58;;;;;;;19.25;8.95;;;16.60;99.90;;;;;;4967668;28;20054;-84
2021/06/27 00:56:26;;;;;;;18.00;9.63;;;16.70;99.90;;;;;;4989344;28;20049;-84
2021/06/27 00:58:54;;;;;;;20.58;9.77;;;16.70;99.90;;;;;;5018571;28;20054;-84
2021/06/27 01:01:23;;;;;;;15.95;8.60;;;16.60;99.90;;;;;;5026385;28;20056;-85
2021/06/27 01:03:50;;;;;;;19.75;8.73;;;16.60;99.90;;;;;;4987698;28;20050;-84
2021/06/27 01:06:18;;;;;;;19.92;9.60;;;16.60;99.90;;;;;;4979102;28;20061;-83
2021/06/27 01:08:46;;;;;;;21.95;9.65;;;16.60;99.90;;;;;;4977807;28;20046;-84
2021/06/27 01:11:14;;;;;;;20.98;9.55;;;16.60;99.90;;;;;;4960580;28;20046;-85
2021/06/27 01:13:43;;;;;;;18.60;9.27;;;16.60;99.90;;;;;;5005510;28;20065;-83
2021/06/27 01:16:13;;;;;;;21.92;11.93;;;16.60;99.90;;;;;;5013943;28;20065;-84
2021/06/27 01:18:41;;;;;;;22.73;10.93;;;16.60;99.90;;;;;;4999305;28;20046;-84
2021/06/27 01:21:12;;;;;;;22.73;10.32;;;16.60;99.90;;;;;;5014518;28;20497;-83
2021/06/27 01:23:39;;;;;;;20.55;10.30;;;16.60;99.90;;;;;;5014151;28;20062;-84
2021/06/27 01:26:09;;;;;;;20.60;10.52;;;16.70;99.90;;;;;;5019551;28;20062;-84
2021/06/27 01:28:42;;;;;;;21.73;10.43;;;16.70;99.90;;;;;;5000419;28;20053;-83
2021/06/27 01:31:12;;;;;;;25.20;12.25;;;16.70;99.90;;;;;;4987771;28;20045;-84
2021/06/27 01:33:41;;;;;;;24.98;11.10;;;16.70;99.90;;;;;;5012351;28;20058;-85
2021/06/27 01:36:09;;;;;;;25.98;12.45;;;16.70;99.90;;;;;;4995146;28;20413;-84
2021/06/27 01:38:38;;;;;;;21.58;8.88;;;16.70;99.90;;;;;;4997212;28;20046;-84
2021/06/27 01:41:07;;;;;;;26.13;11.60;;;16.70;99.90;;;;;;4982985;28;20047;-84
2021/06/27 01:43:35;;;;;;;25.27;10.80;;;16.70;99.90;;;;;;4982263;28;20065;-83
2021/06/27 01:46:05;;;;;;;26.02;11.07;;;16.70;99.90;;;;;;5008463;28;20069;-83
2021/06/27 01:48:34;;;;;;;24.42;10.73;;;16.70;99.90;;;;;;5024291;28;20053;-83
2021/06/27 01:51:08;;;;;;;22.27;10.93;;;16.70;99.90;;;;;;4995538;28;20046;-84
2021/06/27 01:53:38;;;;;;;23.58;10.95;;;16.70;99.90;;;;;;4994317;28;20050;-84
2021/06/27 01:56:08;;;;;;;27.27;10.85;;;16.70;99.90;;;;;;4985476;28;20219;-85
2021/06/27 01:58:39;;;;;;;23.25;10.32;;;16.80;99.90;;;;;;4979201;28;20275;-85
2021/06/27 02:01:29;;;;;;;24.40;11.75;;;16.80;99.90;;;;;;5001635;28;20042;-85
2021/06/27 02:03:58;;;;;;;21.58;10.38;;;16.70;99.90;;;;;;5012476;28;20061;-84
2021/06/27 02:06:27;;;;;;;20.85;10.35;;;16.70;99.90;;;;;;5015003;28;20054;-85
2021/06/27 02:09:01;;;;;;;27.90;12.07;;;16.70;99.90;;;;;;5015105;28;20054;-86
2021/06/27 02:11:29;;;;;;;;;;;16.70;99.90;;;;;;5014538;28;20453;-84
2021/06/27 02:13:57;;;;;;;26.65;12.20;;;16.70;99.90;;;;;;4980733;28;19929;-84
2021/06/27 02:16:26;;;;;;;23.63;10.98;;;16.70;99.90;;;;;;4997578;28;20061;-84
2021/06/27 02:18:56;;;;;;;25.43;11.17;;;16.70;99.90;;;;;;5014787;28;20049;-85
2021/06/27 02:21:30;;;;;;;23.23;11.85;;;16.40;99.90;;;;;;5014703;28;20295;-83
2021/06/27 02:24:00;;;;;;;24.95;11.00;;;16.70;99.90;;;;;;4999993;28;20056;-86
2021/06/27 02:26:28;;;;;;;30.08;13.52;;;16.70;99.90;;;;;;4994500;28;20045;-84
2021/06/27 02:29:02;;;;;;;25.25;12.85;;;16.70;99.90;;;;;;4979192;28;20062;-84
2021/06/27 02:31:31;;;;;;;23.30;12.45;;;16.70;99.90;;;;;;4972427;28;20589;-86
2021/06/27 02:34:00;;;;;;;28.90;12.45;;;16.70;99.90;;;;;;4981747;28;20057;-86
2021/06/27 02:36:31;;;;;;;26.92;12.68;;;16.70;99.90;;;;;;5014873;28;20046;-84
2021/06/27 02:38:59;;;;;;;25.33;11.98;;;16.70;99.90;;;;;;4997019;28;20053;-84
2021/06/27 02:41:27;;;;;;;24.10;12.27;;;16.70;99.90;;;;;;5013154;28;20058;-84
2021/06/27 02:43:54;;;;;;;29.08;12.73;;;16.70;99.90;;;;;;5015966;28;20066;-85
2021/06/27 02:46:23;;;;;;;20.95;10.75;;;16.70;99.90;;;;;;5013751;28;20293;-85
2021/06/27 02:48:51;;;;;;;27.30;12.85;;;16.70;99.90;;;;;;5016791;28;20061;-84
2021/06/27 02:51:20;;;;;;;30.25;13.00;;;16.70;99.90;;;;;;5000087;28;20057;-84
2021/06/27 02:53:47;;;;;;;30.40;13.38;;;16.70;99.90;;;;;;5017283;28;20055;-85
2021/06/27 02:56:16;;;;;;;23.80;11.32;;;16.70;99.90;;;;;;5029643;28;20061;-85
2021/06/27 02:58:50;;;;;;;26.65;12.75;;;16.70;99.90;;;;;;4986766;28;20050;-85
2021/06/27 03:01:19;;;;;;;26.15;12.48;;;17.10;99.90;;;;;;5004565;28;20056;-83
2021/06/27 03:03:51;;;;;;;25.60;12.55;;;16.70;99.90;;;;;;5030605;28;20049;-83
2021/06/27 03:06:20;;;;;;;24.92;12.48;;;16.70;99.90;;;;;;5017287;28;20054;-85
2021/06/27 03:08:48;;;;;;;25.02;11.48;;;16.70;99.90;;;;;;5016380;28;20057;-85
2021/06/27 03:11:17;;;;;;;27.25;12.60;;;16.70;99.90;;;;;;5035234;28;20178;-83
2021/06/27 03:13:46;;;;;;;29.63;14.00;;;16.70;99.90;;;;;;5026996;28;20727;-83
2021/06/27 03:16:15;;;;;;;29.52;13.52;;;16.70;99.90;;;;;;4996619;28;20041;-84
2021/06/27 03:18:42;;;;;;;27.48;13.13;;;16.70;99.90;;;;;;5015096;28;20394;-83
2021/06/27 03:21:10;;;;;;;23.85;12.57;;;16.70;99.90;;;;;;5007320;28;20078;-84
2021/06/27 03:23:38;;;;;;;27.63;14.93;;;16.70;99.90;;;;;;5010841;28;20057;-84
2021/06/27 03:26:07;;;;;;;31.70;15.93;;;16.70;99.90;;;;;;4998124;28;20516;-83
2021/06/27 03:28:36;;;;;;;28.10;14.38;;;16.70;99.90;;;;;;5014704;28;20054;-83
2021/06/27 03:31:05;;;;;;;30.67;15.65;;;17.30;99.90;;;;;;5023408;28;20057;-83
2021/06/27 03:33:33;;;;;;;34.08;16.05;;;16.70;99.90;;;;;;5034638;28;20413;-83
2021/06/27 03:36:00;;;;;;;31.48;16.13;;;16.70;99.90;;;;;;5034716;28;20065;-83
2021/06/27 03:38:52;;;;;;;29.55;15.20;;;16.70;99.90;;;;;;5000733;28;20053;-84
2021/06/27 03:41:23;;;;;;;33.55;18.38;;;16.60;99.90;;;;;;5037505;28;20056;-83
2021/06/27 03:43:52;;;;;;;33.78;17.15;;;16.60;99.90;;;;;;5017621;28;20421;-88
2021/06/27 03:46:21;;;;;;;31.33;14.65;;;16.60;99.90;;;;;;5036103;28;20060;-84
2021/06/27 03:48:49;;;;;;;35.45;17.33;;;16.60;99.90;;;;;;5018055;28;20072;-84
2021/06/27 03:51:20;;;;;;;37.20;16.85;;;16.60;99.90;;;;;;5019239;28;20045;-84
2021/06/27 03:53:47;;;;;;;33.97;18.10;;;16.60;99.90;;;;;;5003837;28;20050;-84
2021/06/27 03:56:19;;;;;;;40.63;16.30;;;16.60;99.90;;;;;;5000713;28;20498;-84
2021/06/27 03:58:48;;;;;;;35.28;17.33;;;16.60;99.90;;;;;;4977207;28;20057;-83
2021/06/27 04:01:16;;;;;;;41.35;18.80;;;16.50;99.90;;;;;;5005215;28;20058;-86
2021/06/27 04:03:46;;;;;;;36.10;18.17;;;16.50;99.90;;;;;;5020158;28;20537;-84
2021/06/27 04:06:14;;;;;;;43.55;20.20;;;16.50;99.90;;;;;;5005433;28;20058;-84
2021/06/27 04:08:42;;;;;;;36.55;19.67;;;16.50;99.90;;;;;;5006819;28;20060;-86
2021/06/27 04:11:10;;;;;;;37.40;19.98;;;16.50;99.90;;;;;;4991196;28;20060;-86
2021/06/27 04:13:42;;;;;;;47.35;21.30;;;16.40;99.90;;;;;;5024366;28;20523;-87
2021/06/27 04:16:10;;;;;;;47.80;20.30;;;16.40;99.90;;;;;;5022623;28;20050;-84
2021/06/27 04:18:41;;;;;;;45.80;20.92;;;16.40;99.90;;;;;;5006616;28;20054;-84
2021/06/27 04:21:09;;;;;;;43.50;20.83;;;16.40;99.90;;;;;;5005716;28;20058;-84
2021/06/27 04:23:40;;;;;;;43.80;19.38;;;16.40;99.90;;;;;;4994289;28;20061;-84
2021/06/27 04:26:08;;;;;;;50.67;22.55;;;16.40;99.90;;;;;;5011347;28;20046;-85
2021/06/27 04:28:36;;;;;;;49.58;23.15;;;16.40;99.90;;;;;;5014243;28;20037;-84
2021/06/27 04:31:05;;;;;;;46.13;22.02;;;16.40;99.90;;;;;;5018048;28;20068;-84
2021/06/27 04:33:33;;;;;;;50.30;23.50;;;16.40;99.90;;;;;;5031026;28;20050;-84
2021/06/27 04:36:01;;;;;;;47.15;22.58;;;16.30;99.90;;;;;;5022806;28;20061;-88
2021/06/27 04:38:30;;;;;;;46.05;23.75;;;16.30;99.90;;;;;;4988946;28;20061;-86
2021/06/27 04:40:58;;;;;;;51.42;23.48;;;16.30;99.90;;;;;;5006837;28;20046;-85
2021/06/27 04:43:25;;;;;;;48.15;25.00;;;16.40;99.90;;;;;;4987349;28;20489;-86
2021/06/27 04:45:53;;;;;;;55.40;22.27;;;16.40;99.90;;;;;;5019325;28;20767;-87
2021/06/27 04:48:21;;;;;;;47.13;24.30;;;16.40;99.90;;;;;;5002199;28;20059;-86
2021/06/27 04:50:50;;;;;;;43.70;23.30;;;16.40;99.90;;;;;;5003284;28;20057;-84
2021/06/27 04:53:18;;;;;;;50.00;24.25;;;16.40;99.90;;;;;;5004527;28;20065;-83
2021/06/27 04:55:48;;;;;;;52.55;23.90;;;16.40;99.90;;;;;;5005021;28;20065;-85
2021/06/27 04:58:15;;;;;;;46.85;24.42;;;16.40;99.90;;;;;;5022293;28;20080;-84
2021/06/27 05:00:45;;;;;;;59.42;26.40;;;16.40;99.90;;;;;;5024530;28;20516;-90
2021/06/27 05:03:13;;;;;;;52.83;24.67;;;16.40;99.90;;;;;;5007436;28;20063;-85
2021/06/27 05:05:41;;;;;;;48.25;23.42;;;16.40;99.90;;;;;;5022578;28;20180;-86
2021/06/27 05:08:09;;;;;;;57.45;25.08;;;16.40;99.90;;;;;;5022893;28;20553;-86
2021/06/27 05:10:37;;;;;;;54.05;24.30;;;16.40;99.90;;;;;;5005296;28;20050;-86
2021/06/27 05:13:07;;;;;;;59.30;27.13;;;16.40;99.90;;;;;;5026535;28;20053;-87
2021/06/27 05:15:36;;;;;;;49.92;24.02;;;16.40;99.90;;;;;;5023412;28;20064;-85
2021/06/27 05:18:05;;;;;;;63.55;27.77;;;16.40;99.90;;;;;;5005928;28;20064;-84
2021/06/27 05:20:32;;;;;;;56.45;26.20;;;16.40;99.90;;;;;;5022401;28;20551;-84
2021/06/27 05:23:01;;;;;;;56.75;27.80;;;16.40;99.90;;;;;;5001989;28;20050;-85
2021/06/27 05:25:29;;;;;;;62.30;27.73;;;16.40;99.90;;;;;;4990202;28;20046;-88
2021/06/27 05:27:57;;;;;;;60.15;27.42;;;16.40;99.90;;;;;;5022717;28;20065;-89
2021/06/27 05:30:27;;;;;;;62.10;26.75;;;16.40;99.90;;;;;;5006597;28;20069;-89
2021/06/27 05:32:57;;;;;;;59.78;28.25;;;16.40;99.90;;;;;;5027390;28;20039;-88
2021/06/27 05:35:27;;;;;;;;;;;16.40;99.90;;;;;;5044241;28;20052;-84
2021/06/27 05:37:55;;;;;;;63.72;29.15;;;16.40;99.90;;;;;;5011682;28;19936;-85
2021/06/27 05:40:24;;;;;;;59.53;27.17;;;16.40;99.90;;;;;;5047319;28;20063;-90
2021/06/27 05:42:55;;;;;;;65.10;28.58;;;16.50;99.90;;;;;;5043191;28;20049;-87
2021/06/27 05:45:31;;;;;;;61.25;28.98;;;16.50;99.90;;;;;;5022141;28;20061;-84
2021/06/27 05:47:59;;;;;;;65.40;31.15;;;16.50;99.90;;;;;;5017100;28;20069;-84
2021/06/27 05:50:27;;;;;;;63.10;27.83;;;16.50;99.90;;;;;;4998047;28;20058;-84
2021/06/27 05:52:57;;;;;;;63.90;29.95;;;16.50;99.90;;;;;;4981366;28;20076;-86
2021/06/27 05:55:24;;;;;;;71.13;32.90;;;16.50;99.90;;;;;;5015357;28;20065;-83
2021/06/27 05:57:53;;;;;;;71.18;33.33;;;16.50;99.90;;;;;;4998258;28;20050;-83
2021/06/27 06:00:25;;;;;;;68.13;32.37;;;16.50;99.90;;;;;;4981749;28;20053;-84
2021/06/27 06:02:56;;;;;;;71.10;31.55;;;16.60;99.90;;;;;;5013032;28;20417;-84
2021/06/27 06:05:24;;;;;;;74.97;32.70;;;16.60;99.90;;;;;;4995170;28;20061;-84
2021/06/27 06:07:53;;;;;;;72.20;33.78;;;16.60;99.90;;;;;;4995891;28;20382;-86
2021/06/27 06:10:22;;;;;;;64.03;32.25;;;16.60;99.90;;;;;;5012863;28;20042;-84
2021/06/27 06:12:50;;;;;;;67.40;32.08;;;16.60;99.90;;;;;;4963644;28;20042;-84
2021/06/27 06:15:18;;;;;;;68.18;30.83;;;16.70;99.90;;;;;;5010878;28;20056;-82
2021/06/27 06:17:46;;;;;;;66.70;31.67;;;16.70;99.90;;;;;;4993314;28;20050;-83
2021/06/27 06:20:16;;;;;;;65.30;30.88;;;16.70;99.90;;;;;;4995194;28;20069;-83
2021/06/27 06:22:46;;;;;;;74.65;34.65;;;16.70;99.90;;;;;;4996407;28;20093;-84
2021/06/27 06:26:01;;;;;;;78.32;33.45;;;16.70;99.90;;;;;;4992000;28;20054;-82
2021/06/27 06:29:12;;;;;;;60.00;30.75;;;16.70;99.90;;;;;;5037607;28;20052;-84
2021/06/27 06:31:40;;;;;;;67.15;30.08;;;16.80;99.90;;;;;;5024219;28;20057;-86
2021/06/27 06:34:20;;;;;;;67.50;31.73;;;16.80;99.90;;;;;;5020679;28;20544;-84
2021/06/27 06:37:14;;;;;;;64.32;30.25;;;16.80;99.90;;;;;;5028238;28;20797;-84
2021/06/27 06:39:48;;;;;;;77.10;33.38;;;16.80;99.90;;;;;;4994016;28;20041;-83
2021/06/27 06:42:33;;;;;;;63.60;32.70;;;16.90;99.90;;;;;;4985813;28;20046;-81
2021/06/27 06:45:10;;;;;;;68.90;31.45;;;16.70;99.90;;;;;;4964497;28;20050;-83
2021/06/27 06:47:41;;;;;;;61.57;29.17;;;16.90;99.90;;;;;;4964657;28;20069;-83
2021/06/27 06:50:09;;;;;;;65.43;33.15;;;16.90;99.90;;;;;;4995924;28;20300;-83
2021/06/27 06:52:39;;;;;;;70.75;33.08;;;16.90;99.90;;;;;;4997857;28;20062;-83
2021/06/27 06:55:08;;;;;;;69.60;32.45;;;17.00;99.90;;;;;;5000141;28;20117;-84
2021/06/27 06:57:36;;;;;;;66.35;31.60;;;16.90;99.90;;;;;;5020407;28;20057;-82
2021/06/27 07:00:51;;;;;;;64.80;35.10;;;17.00;99.90;;;;;;5027892;28;20054;-83
2021/06/27 07:03:58;;;;;;;66.85;32.75;;;17.00;99.90;;;;;;5008019;28;20043;-84
2021/06/27 07:06:28;;;;;;;67.55;32.45;;;17.00;99.90;;;;;;4991652;28;20054;-83
2021/06/27 07:08:58;;;;;;;68.68;32.10;;;17.00;99.90;;;;;;4974625;28;20054;-83
2021/06/27 07:11:30;;;;;;;71.70;32.20;;;17.10;99.90;;;;;;4990941;28;20061;-83
2021/06/27 07:14:03;;;;;;;58.42;31.80;;;17.10;99.90;;;;;;5005893;28;20398;-83
2021/06/27 07:16:46;;;;;;;73.72;31.27;;;17.20;99.90;;;;;;4994663;28;20061;-83
2021/06/27 07:19:16;;;;;;;58.53;29.35;;;17.20;99.90;;;;;;4996361;28;20054;-84
2021/06/27 07:21:46;;;;;;;58.22;30.63;;;17.30;99.90;;;;;;5011648;28;20050;-84
2021/06/27 07:24:26;;;;;;;56.33;29.95;;;17.30;99.90;;;;;;4978347;28;20066;-83
2021/06/27 07:27:21;;;;;;;60.15;31.10;;;17.40;99.90;;;;;;5002431;28;20054;-83
2021/06/27 07:30:13;;;;;;;56.55;27.40;;;17.40;99.90;;;;;;4993047;28;20059;-82
2021/06/27 07:32:42;;;;;;;55.78;27.60;;;17.50;99.90;;;;;;5009276;28;20049;-84
2021/06/27 07:35:20;;;;;;;57.75;27.60;;;17.50;99.90;;;;;;4994758;28;20056;-82
2021/06/27 07:38:56;;;;;;;62.22;28.33;;;17.50;99.90;;;;;;5004128;28;20050;-84
2021/06/27 07:41:33;;;;;;;53.03;29.35;;;17.60;99.90;;;;;;5013809;28;20054;-83
2021/06/27 07:44:11;;;;;;;57.22;26.15;;;17.60;99.90;;;;;;5096233;23;20044;-85
2021/06/27 07:46:40;;;;;;;54.42;23.20;;;17.60;99.90;;;;;;4996703;28;20045;-84
2021/06/27 07:49:09;;;;;;;56.53;26.20;;;17.70;99.90;;;;;;5000664;28;20050;-83
2021/06/27 07:51:41;;;;;;;50.85;23.88;;;17.70;99.90;;;;;;4980713;28;20303;-85
2021/06/27 07:54:14;;;;;;;55.22;25.88;;;17.70;99.90;;;;;;4997087;28;20048;-83
2021/06/27 07:56:44;;;;;;;46.00;24.17;;;17.90;99.90;;;;;;5009586;28;20056;-83
2021/06/27 07:59:16;;;;;;;55.15;24.08;;;18.10;99.90;;;;;;5034171;28;20060;-84
2021/06/27 08:01:45;;;;;;;46.85;23.52;;;17.90;99.90;;;;;;5022918;28;20054;-83
2021/06/27 08:04:15;;;;;;;50.80;24.67;;;18.00;99.90;;;;;;4981318;28;20065;-83
2021/06/27 08:06:57;;;;;;;45.50;22.70;;;18.00;99.90;;;;;;4996539;28;20056;-86
2021/06/27 08:09:24;;;;;;;47.78;22.98;;;18.10;99.90;;;;;;4997075;28;20065;-84
2021/06/27 08:11:53;;;;;;;50.40;23.65;;;18.20;99.90;;;;;;4994442;28;20444;-83
2021/06/27 08:14:25;;;;;;;42.75;23.50;;;18.20;99.90;;;;;;4949449;28;20849;-85
2021/06/27 08:17:00;;;;;;;56.15;24.35;;;18.30;99.90;;;;;;4954168;28;20133;-85
2021/06/27 08:19:36;;;;;;;45.50;21.40;;;18.30;99.90;;;;;;4967686;28;20057;-85
2021/06/27 08:22:08;;;;;;;43.50;22.58;;;18.30;99.90;;;;;;4973974;28;20062;-84
2021/06/27 08:24:37;;;;;;;43.65;22.08;;;18.30;99.90;;;;;;4963393;28;20061;-83
2021/06/27 08:27:10;;;;;;;43.72;21.05;;;18.30;99.90;;;;;;4964724;28;20070;-84
2021/06/27 08:29:39;;;;;;;40.30;21.35;;;18.30;99.90;;;;;;4959666;28;20058;-84
2021/06/27 08:32:07;;;;;;;44.88;23.10;;;18.30;99.90;;;;;;4980325;28;20049;-83
2021/06/27 08:34:36;;;;;;;44.17;22.48;;;18.30;99.90;;;;;;4992706;28;20055;-84
2021/06/27 08:37:06;;;;;;;42.80;24.45;;;18.20;99.90;;;;;;4962365;28;20050;-83
2021/06/27 08:39:37;;;;;;;46.63;22.95;;;18.20;99.90;;;;;;4978661;28;20061;-83
2021/06/27 08:42:06;;;;;;;44.72;22.85;;;18.20;99.90;;;;;;4974777;28;20561;-85
2021/06/27 08:44:40;;;;;;;35.33;18.38;;;18.10;99.90;;;;;;4993274;28;20514;-84
2021/06/27 08:47:15;;;;;;;36.60;20.60;;;18.20;99.90;;;;;;4956985;28;20042;-82
2021/06/27 08:49:47;;;;;;;37.80;19.83;;;18.30;99.90;;;;;;4992174;28;20088;-83
2021/06/27 08:52:22;;;;;;;32.67;19.17;;;18.30;99.90;;;;;;4990533;28;20529;-82
2021/06/27 08:54:55;;;;;;;40.47;21.95;;;18.30;99.90;;;;;;4983637;28;20054;-82
2021/06/27 08:57:25;;;;;;;36.65;19.90;;;18.40;99.90;;;;;;4979196;28;20069;-82
2021/06/27 08:59:54;;;;;;;32.67;16.83;;;18.40;99.90;;;;;;4995932;28;20042;-83
2021/06/27 09:02:24;;;;;;;;;;;18.50;99.90;;;;;;4974995;28;20062;-82
2021/06/27 09:04:54;;;;;;;38.72;19.77;;;18.50;99.90;;;;;;4991445;28;19922;-82
2021/06/27 09:07:32;;;;;;;37.67;20.25;;;18.60;99.90;;;;;;4975262;28;20050;-83
2021/06/27 09:10:24;;;;;;;44.05;22.23;;;18.60;99.90;;;;;;4977020;28;20073;-84
2021/06/27 09:12:57;;;;;;;44.08;21.77;;;18.50;99.90;;;;;;4971937;28;20049;-83
2021/06/27 09:15:40;;;;;;;41.15;22.92;;;18.50;99.90;;;;;;4975534;28;20050;-82
2021/06/27 09:18:14;;;;;;;43.63;23.35;;;18.40;99.90;;;;;;4978262;28;20065;-86
2021/06/27 09:20:53;;;;;;;42.92;24.40;;;18.40;99.90;;;;;;4992940;28;20414;-83
2021/06/27 09:23:47;;;;;;;47.03;24.33;;;18.30;99.90;;;;;;4973676;28;20832;-83
2021/06/27 09:26:27;;;;;;;50.60;25.67;;;18.30;99.90;;;;;;4952480;28;20406;-84
2021/06/27 09:28:57;;;;;;;47.53;25.80;;;18.10;99.90;;;;;;4990133;28;20054;-82
2021/06/27 09:31:40;;;;;;;54.15;27.92;;;18.20;99.90;;;;;;4960228;28;20058;-83
2021/06/27 09:34:13;;;;;;;51.55;26.25;;;18.10;99.90;;;;;;4993481;28;20061;-84
2021/06/27 09:36:49;;;;;;;42.03;24.55;;;18.10;99.90;;;;;;4977000;28;20050;-83
2021/06/27 09:39:19;;;;;;;48.60;24.48;;;18.10;99.90;;;;;;4960182;28;20050;-83
2021/06/27 09:41:54;;;;;;;47.85;27.30;;;18.10;99.90;;;;;;4991630;28;20057;-83
2021/06/27 09:44:22;;;;;;;53.05;28.80;;;18.10;99.90;;;;;;4976320;28;20050;-84
2021/06/27 09:46:53;;;;;;;45.95;26.55;;;18.10;99.90;;;;;;4992274;28;20434;-82
2021/06/27 09:49:29;;;;;;;54.22;27.95;;;18.10;99.90;;;;;;4962111;28;20054;-84
2021/06/27 09:52:07;;;;;;;47.17;27.13;;;18.10;99.90;;;;;;4958253;28;20046;-82
2021/06/27 09:54:37;;;;;;;53.75;29.17;;;18.00;99.90;;;;;;4959970;28;20046;-83
2021/06/27 09:57:21;;;;;;;60.25;30.48;;;18.10;99.90;;;;;;5002156;28;20061;-84
2021/06/27 09:59:54;;;;;;;62.60;31.08;;;18.00;99.90;;;;;;4997577;28;20054;-82
2021/06/27 10:02:24;;;;;;;59.65;33.75;;;18.10;99.90;;;;;;4980467;28;20058;-84
2021/06/27 10:04:53;;;;;;;;;;;18.10;99.90;;;;;;4977061;28;20045;-83
2021/06/27 10:07:37;;;;;;;57.67;29.73;;;18.10;99.90;;;;;;4957182;28;19925;-84
2021/06/27 10:10:18;;;;;;;53.83;30.60;;;18.10;99.90;;;;;;4993023;28;20049;-85
2021/06/27 10:12:47;;;;;;;66.03;32.35;;;18.10;99.90;;;;;;4974633;28;20061;-83
2021/06/27 10:15:18;;;;;;;64.68;32.30;;;18.10;99.90;;;;;;4957925;28;20039;-83
2021/06/27 10:17:46;;;;;;;57.40;32.75;;;18.20;99.90;;;;;;4988676;28;20398;-83
2021/06/27 10:20:17;;;;;;;60.15;34.42;;;18.30;99.90;;;;;;4991580;28;20047;-83
2021/06/27 10:23:11;;;;;;;58.72;32.35;;;18.40;99.90;;;;;;4985307;28;20512;-82
2021/06/27 10:26:43;;;;;;;65.40;33.15;;;18.50;99.90;;;;;;4964908;28;20046;-85
2021/06/27 10:29:44;;;;;;;54.40;33.60;;;18.40;99.90;;;;;;4967343;28;20054;-83
2021/06/27 10:32:20;;;;;;;61.30;30.40;;;18.70;99.90;;;;;;4953749;28;20046;-83
2021/06/27 10:34:49;;;;;;;56.85;32.13;;;18.70;99.90;;;;;;4991129;28;20510;-85
2021/06/27 10:37:30;;;;;;;62.92;33.15;;;18.80;99.90;;;;;;4968908;28;20043;-82
2021/06/27 10:40:14;;;;;;;57.83;31.42;;;18.80;99.90;;;;;;4984631;28;20062;-84
2021/06/27 10:42:56;;;;;;;52.15;29.75;;;19.00;99.90;;;;;;4979620;28;20058;-82
2021/06/27 10:45:49;;;;;;;58.30;29.88;;;18.80;99.90;;;;;;4951283;28;20058;-82
2021/06/27 10:48:33;;;;;;;52.88;28.80;;;18.80;99.90;;;;;;4987293;28;20826;-82
2021/06/27 10:51:14;;;;;;;58.65;29.85;;;18.90;99.90;;;;;;4956572;28;20439;-84
2021/06/27 10:54:12;;;;;;;64.50;31.80;;;18.90;99.90;;;;;;4971358;28;20058;-82
2021/06/27 10:57:01;;;;;;;53.25;30.92;;;19.00;99.90;;;;;;4982900;28;20058;-83
2021/06/27 10:59:38;;;;;;;55.85;29.75;;;19.10;99.90;;;;;;4988046;28;20065;-83
2021/06/27 11:02:17;;;;;;;53.08;30.80;;;19.20;99.90;;;;;;4966563;28;20418;-83
2021/06/27 11:04:47;;;;;;;51.33;32.85;;;19.20;99.90;;;;;;4967082;28;20054;-83
2021/06/27 11:07:38;;;;;;;58.63;30.27;;;19.30;99.90;;;;;;4953251;28;20101;-82
2021/06/27 11:10:20;;;;;;;58.92;31.48;;;19.30;99.90;;;;;;4992310;28;20046;-83
2021/06/27 11:13:04;;;;;;;55.35;30.35;;;19.30;99.90;;;;;;4977570;28;20050;-82
2021/06/27 11:15:57;;;;;;;52.88;29.17;;;19.40;99.90;;;;;;4963556;28;20051;-84
2021/06/27 11:18:39;;;;;;;56.97;31.48;;;19.50;99.90;;;;;;4994855;28;20058;-82
2021/06/27 11:21:11;;;;;;;;;;;19.60;99.90;;;;;;4983625;28;20058;-82
2021/06/27 11:23:48;;;;;;;56.03;35.22;;;19.60;99.90;;;;;;4983702;28;19920;-83
2021/06/27 11:26:40;;;;;;;50.30;29.70;;;19.70;99.90;;;;;;4973851;28;20054;-83
2021/06/27 11:29:21;;;;;;;53.70;29.27;;;19.60;99.90;;;;;;4995175;28;20046;-82
2021/06/27 11:32:16;;;;;;;52.97;29.38;;;19.70;99.90;;;;;;4975297;28;20490;-83
2021/06/27 11:34:55;;;;;;;48.22;29.17;;;19.70;99.90;;;;;;4990544;28;20042;-81
2021/06/27 11:37:36;;;;;;;58.33;31.25;;;19.70;99.90;;;;;;4982950;28;20533;-82
2021/06/27 11:40:12;;;;;;;53.78;29.88;;;19.70;99.90;;;;;;4991761;28;20071;-86
2021/06/27 11:42:44;;;;;;;51.13;29.95;;;19.80;99.90;;;;;;4974795;28;20058;-86
2021/06/27 11:45:16;;;;;;;57.58;31.75;;;19.80;99.90;;;;;;4979406;28;20050;-83
2021/06/27 11:47:51;;;;;;;56.33;33.40;;;19.80;99.90;;;;;;4978541;28;20062;-86
2021/06/27 11:50:26;;;;;;;54.40;30.77;;;19.90;99.90;;;;;;4988846;28;20050;-81
2021/06/27 11:53:01;;;;;;;57.90;31.90;;;19.80;99.90;;;;;;4968148;28;20039;-81
2021/06/27 11:55:32;;;;;;;48.97;28.08;;;19.80;99.90;;;;;;4997275;28;20549;-82
2021/06/27 11:58:03;;;;;;;50.70;30.95;;;19.80;99.90;;;;;;4974041;28;20057;-83
2021/06/27 12:00:45;;;;;;;;;;;19.50;99.90;;;;;;4968995;28;20050;-83
2021/06/27 12:03:20;;;;;;;54.38;29.67;;;19.80;99.90;;;;;;4992107;28;19926;-82
2021/06/27 12:05:57;;;;;;;58.55;33.25;;;19.80;99.90;;;;;;4986348;28;20054;-83
2021/06/27 12:08:27;;;;;;;49.80;29.80;;;19.90;99.90;;;;;;4989482;28;20058;-83
2021/06/27 12:10:59;;;;;;;59.85;31.88;;;20.00;99.90;;;;;;4984943;28;20419;-84
2021/06/27 12:13:29;;;;;;;57.60;33.78;;;20.00;99.90;;;;;;4971977;28;20069;-83
2021/06/27 12:15:59;;;;;;;54.67;32.95;;;20.00;99.90;;;;;;4975720;28;20054;-80
2021/06/27 12:18:30;;;;;;;48.53;29.67;;;20.00;99.90;;;;;;4977315;28;20053;-82
2021/06/27 12:21:01;;;;;;;53.37;33.00;;;19.30;99.90;;;;;;4987405;28;20057;-81
2021/06/27 12:23:44;;;;;;;51.83;31.05;;;19.90;99.90;;;;;;4975534;28;20054;-82
2021/06/27 12:26:14;;;;;;;54.97;31.10;;;20.00;99.90;;;;;;4989259;28;20054;-82
2021/06/27 12:28:53;;;;;;;64.22;34.80;;;20.00;99.90;;;;;;4981861;28;20058;-82
2021/06/27 12:31:26;;;;;;;54.17;31.55;;;19.90;99.90;;;;;;4988492;28;20069;-83
2021/06/27 12:33:58;;;;;;;51.45;31.67;;;19.90;99.90;;;;;;4955132;28;20039;-84
2021/06/27 12:36:46;;;;;;;55.33;33.40;;;20.00;99.90;;;;;;4991640;28;20058;-83
2021/06/27 12:39:22;;;;;;;60.58;33.20;;;20.00;99.90;;;;;;4992716;28;20073;-83
2021/06/27 12:42:11;;;;;;;60.70;37.20;;;20.00;99.90;;;;;;4991527;28;20054;-83
2021/06/27 12:44:42;;;;;;;56.35;34.35;;;20.00;99.90;;;;;;4963526;28;20530;-83
2021/06/27 12:47:10;;;;;;;67.15;37.47;;;20.00;99.90;;;;;;4969776;28;20050;-83
2021/06/27 12:49:48;;;;;;;56.50;36.83;;;20.00;99.90;;;;;;4990384;28;20049;-83
2021/06/27 12:52:23;;;;;;;55.33;33.88;;;20.10;99.90;;;;;;4972286;28;20833;-82
2021/06/27 12:54:52;;;;;;;57.47;35.42;;;20.20;99.90;;;;;;4958009;28;20058;-83
2021/06/27 12:57:22;;;;;;;63.30;39.08;;;20.20;99.90;;;;;;4962116;28;20051;-83
2021/06/27 12:59:53;;;;;;;;;;;20.20;99.90;;;;;;4958402;28;20042;-83
2021/06/27 13:02:33;;;;;;;59.40;35.63;;;20.30;99.90;;;;;;4980637;28;19930;-84